createdAt,value
2022-08-17T00:01:32.694Z,8.43
2022-08-17T00:04:19.105Z,9.35
2022-08-17T00:06:46.262Z,10.27
2022-08-17T00:09:18.911Z,15.20
2022-08-17T00:12:35.041Z,11.98
2022-08-17T00:14:33.983Z,10.88
2022-08-17T00:17:01.143Z,12.95
2022-08-17T00:19:28.176Z,11.57
2022-08-17T00:22:32.622Z,9.07
2022-08-17T00:24:44.560Z,9.80
2022-08-17T00:27:11.639Z,9.18
2022-08-17T00:29:38.696Z,11.88
2022-08-17T00:33:13.602Z,8.77
2022-08-17T00:34:53.107Z,15.90
2022-08-17T00:37:21.514Z,14.68
2022-08-17T00:39:48.693Z,13.82
2022-08-17T00:42:17.302Z,11.70
2022-08-17T00:44:44.687Z,16.25
2022-08-17T00:47:11.725Z,17.42
2022-08-17T00:49:38.711Z,15.38
2022-08-17T00:52:11.937Z,15.68
2022-08-17T00:54:41.664Z,18.58
2022-08-17T00:57:15.646Z,12.10
2022-08-17T01:00:01.552Z,15.05
2022-08-17T01:02:36.690Z,11.90
2022-08-17T01:05:23.827Z,8.85
2022-08-17T01:07:52.830Z,11.07
2022-08-17T01:10:59.577Z,15.35
2022-08-17T01:13:13.504Z,10.05
2022-08-17T01:15:46.207Z,12.63
2022-08-17T01:18:13.780Z,6.65
2022-08-17T01:20:51.549Z,8.77
2022-08-17T01:23:21.248Z,7.55
2022-08-17T01:25:53.496Z,14.65
2022-08-17T01:28:52.663Z,9.13
2022-08-17T01:31:08.042Z,9.68
2022-08-17T01:33:35.311Z,9.50
2022-08-17T01:36:03.963Z,8.90
2022-08-17T01:38:31.927Z,6.32
2022-08-17T01:41:01.870Z,6.55
2022-08-17T01:43:32.814Z,9.55
2022-08-17T01:46:02.512Z,10.90
2022-08-17T01:48:36.904Z,7.32
2022-08-17T01:51:06.100Z,8.15
2022-08-17T01:53:39.871Z,5.45
2022-08-17T01:56:11.381Z,13.50
2022-08-17T01:58:39.797Z,8.65
2022-08-17T02:01:07.160Z,7.88
2022-08-17T02:03:34.594Z,7.05
2022-08-17T02:06:02.262Z,7.18
2022-08-17T02:08:37.305Z,5.68
2022-08-17T02:11:12.091Z,4.82
2022-08-17T02:13:39.248Z,10.55
2022-08-17T02:16:06.252Z,9.32
2022-08-17T02:18:33.296Z,13.23
2022-08-17T02:21:00.969Z,7.50
2022-08-17T02:23:30.617Z,5.90
2022-08-17T02:25:58.771Z,7.50
2022-08-17T02:28:26.083Z,8.27
2022-08-17T02:31:01.127Z,7.32
2022-08-17T02:33:41.719Z,9.98
2022-08-17T02:36:09.690Z,12.48
2022-08-17T02:38:37.483Z,8.43
2022-08-17T02:41:04.593Z,9.60
2022-08-17T02:43:31.757Z,10.25
2022-08-17T02:45:58.769Z,7.95
2022-08-17T02:48:31.225Z,7.40
2022-08-17T02:50:59.688Z,7.78
2022-08-17T02:53:27.228Z,7.55
2022-08-17T02:55:54.293Z,11.32
2022-08-17T02:58:34.509Z,9.40
2022-08-17T03:01:07.361Z,13.27
2022-08-17T03:03:34.779Z,6.32
2022-08-17T03:06:01.873Z,12.50
2022-08-17T03:08:29.004Z,10.70
2022-08-17T03:10:56.296Z,7.93
2022-08-17T03:13:23.300Z,8.85
2022-08-17T03:15:50.583Z,13.65
2022-08-17T03:18:24.514Z,6.53
2022-08-17T03:20:54.828Z,8.68
2022-08-17T03:23:24.210Z,7.57
2022-08-17T03:25:53.640Z,9.57
2022-08-17T03:28:21.687Z,5.80
2022-08-17T03:30:49.031Z,5.78
2022-08-17T03:33:17.009Z,11.45
2022-08-17T03:35:44.076Z,10.20
2022-08-17T03:38:11.831Z,5.63
2022-08-17T03:40:57.765Z,12.00
2022-08-17T03:43:28.104Z,6.60
2022-08-17T03:46:27.823Z,8.05
2022-08-17T03:49:14.969Z,7.90
2022-08-17T03:52:00.465Z,8.40
2022-08-17T03:54:45.888Z,10.63
2022-08-17T03:57:13.158Z,7.95
2022-08-17T03:59:40.873Z,7.72
2022-08-17T04:02:32.143Z,5.55
2022-08-17T04:04:59.299Z,7.70
2022-08-17T04:07:28.686Z,5.05
2022-08-17T04:09:55.994Z,9.68
2022-08-17T04:12:23.515Z,8.45
2022-08-17T04:14:53.146Z,8.13
2022-08-17T04:17:28.426Z,8.55
2022-08-17T04:19:55.627Z,9.15
2022-08-17T04:22:33.265Z,7.40
2022-08-17T04:25:08.419Z,6.95
2022-08-17T04:27:35.883Z,7.97
2022-08-17T04:30:03.169Z,6.53
2022-08-17T04:33:02.239Z,8.93
2022-08-17T04:35:22.007Z,12.00
2022-08-17T04:37:49.307Z,9.63
2022-08-17T04:40:35.413Z,10.00
2022-08-17T04:43:04.072Z,8.20
2022-08-17T04:45:31.924Z,10.70
2022-08-17T04:48:00.444Z,6.13
2022-08-17T04:50:27.735Z,7.18
2022-08-17T04:52:56.765Z,7.13
2022-08-17T04:55:24.305Z,9.02
2022-08-17T04:57:51.328Z,7.35
2022-08-17T05:00:18.770Z,7.80
2022-08-17T05:02:50.041Z,9.15
2022-08-17T05:05:22.219Z,7.95
2022-08-17T05:07:52.591Z,7.13
2022-08-17T05:10:20.153Z,8.57
2022-08-17T05:12:47.414Z,9.73
2022-08-17T05:15:17.442Z,16.70
2022-08-17T05:17:46.475Z,19.90
2022-08-17T05:20:13.643Z,8.63
2022-08-17T05:22:50.163Z,11.65
2022-08-17T05:25:25.943Z,9.48
2022-08-17T05:27:54.487Z,14.15
2022-08-17T05:30:22.356Z,8.00
2022-08-17T05:32:59.179Z,10.85
2022-08-17T05:35:27.392Z,13.80
2022-08-17T05:37:54.599Z,11.80
2022-08-17T05:40:23.973Z,9.68
2022-08-17T05:42:51.177Z,16.23
2022-08-17T05:45:39.971Z,14.43
2022-08-17T05:48:07.833Z,12.65
2022-08-17T05:50:44.667Z,18.73
2022-08-17T05:53:20.659Z,20.10
2022-08-17T05:55:55.332Z,14.70
2022-08-17T05:58:36.076Z,11.13
2022-08-17T06:01:19.729Z,13.07
2022-08-17T06:04:09.619Z,14.52
2022-08-17T06:06:52.483Z,14.48
2022-08-17T06:09:38.539Z,15.93
2022-08-17T06:12:19.835Z,10.32
2022-08-17T06:14:58.417Z,16.10
2022-08-17T06:17:25.504Z,12.45
2022-08-17T06:20:00.558Z,12.23
2022-08-17T06:22:36.534Z,18.58
2022-08-17T06:25:09.990Z,18.45
2022-08-17T06:27:43.015Z,18.83
2022-08-17T06:30:16.492Z,15.35
2022-08-17T06:32:44.828Z,19.00
2022-08-17T06:35:13.484Z,17.92
2022-08-17T06:38:05.685Z,23.77
2022-08-17T06:40:46.252Z,29.88
2022-08-17T06:43:47.949Z,43.30
2022-08-17T06:46:33.585Z,35.78
2022-08-17T06:49:21.903Z,40.97
2022-08-17T06:52:42.112Z,57.13
2022-08-17T06:55:06.375Z,46.05
2022-08-17T06:57:38.095Z,42.40
2022-08-17T07:00:13.746Z,37.35
2022-08-17T07:03:14.019Z,49.92
2022-08-17T07:05:44.976Z,36.72
2022-08-17T07:08:18.603Z,33.45
2022-08-17T07:11:05.456Z,32.40
2022-08-17T07:13:54.134Z,38.30
2022-08-17T07:16:38.667Z,36.22
2022-08-17T07:19:07.365Z,28.27
2022-08-17T07:22:13.991Z,33.08
2022-08-17T07:24:51.494Z,44.33
2022-08-17T07:27:22.643Z,46.53
2022-08-17T07:30:01.259Z,40.55
2022-08-17T07:32:36.196Z,36.20
2022-08-17T07:35:31.317Z,35.60
2022-08-17T07:38:26.871Z,35.88
2022-08-17T07:43:26.157Z,34.70
2022-08-17T07:46:21.738Z,45.13
2022-08-17T07:48:54.352Z,37.28
2022-08-17T07:51:31.903Z,43.13
2022-08-17T07:54:14.448Z,30.38
2022-08-17T07:56:57.181Z,38.35
2022-08-17T07:59:33.565Z,29.02
2022-08-17T08:02:06.856Z,33.03
2022-08-17T08:04:59.748Z,36.00
2022-08-17T08:07:38.630Z,32.08
2022-08-17T08:10:27.871Z,32.03
2022-08-17T08:13:12.301Z,41.63
2022-08-17T08:15:45.224Z,45.25
2022-08-17T08:18:54.559Z,38.47
2022-08-17T08:21:36.932Z,40.58
2022-08-17T08:24:17.416Z,39.83
2022-08-17T08:27:12.247Z,37.13
2022-08-17T08:29:43.626Z,41.13
2022-08-17T08:32:17.385Z,39.08
2022-08-17T08:35:02.710Z,43.72
2022-08-17T08:37:43.120Z,31.08
2022-08-17T08:40:29.287Z,35.55
2022-08-17T08:43:22.867Z,37.05
2022-08-17T08:46:24.174Z,34.38
2022-08-17T08:50:01.378Z,36.05
2022-08-17T08:52:49.278Z,45.28
2022-08-17T08:55:35.648Z,26.90
2022-08-17T08:58:40.474Z,31.70
2022-08-17T09:01:00.405Z,31.80
2022-08-17T09:04:10.879Z,29.83
2022-08-17T09:07:07.997Z,38.33
2022-08-17T09:09:55.142Z,35.47
2022-08-17T09:12:50.797Z,33.22
2022-08-17T09:15:35.074Z,38.15
2022-08-17T09:19:01.333Z,26.65
2022-08-17T09:21:06.711Z,30.70
2022-08-17T09:23:41.128Z,35.20
2022-08-17T09:26:17.236Z,23.63
2022-08-17T09:28:47.092Z,30.70
2022-08-17T09:31:49.090Z,25.20
2022-08-17T09:34:19.611Z,46.53
2022-08-17T09:37:17.067Z,21.58
2022-08-17T09:40:23.756Z,25.10
2022-08-17T09:43:22.326Z,23.40
2022-08-17T09:45:57.342Z,20.40
2022-08-17T09:48:36.519Z,23.33
2022-08-17T09:51:19.001Z,17.58
2022-08-17T09:53:46.493Z,18.67
2022-08-17T09:56:46.950Z,15.93
2022-08-17T09:59:41.985Z,17.27
2022-08-17T10:02:35.029Z,18.17
2022-08-17T10:05:38.312Z,17.02
2022-08-17T10:08:12.971Z,18.10
2022-08-17T10:11:15.836Z,19.70
2022-08-17T10:13:52.933Z,20.00
2022-08-17T10:16:28.751Z,17.80
2022-08-17T10:19:08.043Z,20.50
2022-08-17T10:22:01.122Z,20.85
2022-08-17T10:25:22.846Z,12.75
2022-08-17T10:27:54.983Z,15.75
2022-08-17T10:30:33.454Z,16.38
2022-08-17T10:33:03.544Z,12.80
2022-08-17T10:35:42.681Z,12.60
2022-08-17T10:38:12.661Z,18.63
2022-08-17T10:41:00.547Z,19.58
2022-08-17T10:44:37.398Z,12.50
2022-08-17T10:46:56.563Z,9.52
2022-08-17T10:49:29.484Z,10.63
2022-08-17T10:52:24.920Z,17.33
2022-08-17T10:54:58.417Z,11.77
2022-08-17T10:57:34.689Z,16.55
2022-08-17T11:00:09.633Z,25.00
2022-08-17T11:02:55.756Z,16.88
2022-08-17T11:05:43.514Z,13.13
2022-08-17T11:08:26.416Z,15.13
2022-08-17T11:11:04.217Z,13.48
2022-08-17T11:13:49.463Z,8.98
2022-08-17T11:16:40.864Z,16.98
2022-08-17T11:19:38.686Z,14.93
2022-08-17T11:22:43.020Z,13.40
2022-08-17T11:25:18.986Z,11.18
2022-08-17T11:27:53.783Z,10.43
2022-08-17T11:30:48.525Z,9.48
2022-08-17T11:33:34.203Z,8.05
2022-08-17T11:36:32.286Z,7.13
2022-08-17T11:39:18.254Z,9.30
2022-08-17T11:42:05.834Z,5.97
2022-08-17T11:44:57.430Z,8.25
2022-08-17T11:48:25.910Z,8.88
2022-08-17T11:51:19.192Z,6.13
2022-08-17T11:54:14.622Z,11.00
2022-08-17T11:56:45.934Z,7.38
2022-08-17T11:59:39.131Z,7.70
2022-08-17T12:02:35.215Z,5.65
2022-08-17T12:05:12.384Z,9.70
2022-08-17T12:08:05.548Z,6.28
2022-08-17T12:10:34.398Z,4.50
2022-08-17T12:13:13.707Z,6.60
2022-08-17T12:15:48.695Z,5.38
2022-08-17T12:18:29.750Z,5.77
2022-08-17T12:21:13.410Z,8.50
2022-08-17T12:24:10.735Z,18.05
2022-08-17T12:26:38.287Z,7.00
2022-08-17T12:29:07.165Z,5.82
2022-08-17T12:31:45.290Z,11.57
2022-08-17T12:36:50.307Z,4.82
2022-08-17T12:39:24.869Z,7.15
2022-08-17T12:41:57.377Z,9.30
2022-08-17T12:44:32.511Z,5.27
2022-08-17T12:47:06.971Z,8.85
2022-08-17T12:49:35.936Z,8.02
2022-08-17T12:52:23.619Z,8.95
2022-08-17T12:55:00.547Z,6.05
2022-08-17T12:57:34.451Z,9.35
2022-08-17T13:00:09.567Z,7.88
2022-08-17T13:02:48.870Z,10.40
2022-08-17T13:05:27.559Z,8.57
2022-08-17T13:07:55.703Z,9.90
2022-08-17T13:10:32.727Z,9.25
2022-08-17T13:13:20.687Z,6.63
2022-08-17T13:15:58.817Z,3.63
2022-08-17T13:18:40.696Z,8.55
2022-08-17T13:21:30.343Z,6.55
2022-08-17T13:24:04.317Z,7.72
2022-08-17T13:26:37.371Z,12.15
2022-08-17T13:29:28.623Z,4.00
2022-08-17T13:32:14.004Z,11.02
2022-08-17T13:34:51.353Z,6.43
2022-08-17T13:37:33.593Z,4.57
2022-08-17T13:40:10.098Z,6.82
2022-08-17T13:42:48.125Z,11.68
2022-08-17T13:45:36.523Z,7.53
2022-08-17T13:48:28.257Z,6.15
2022-08-17T13:50:55.364Z,14.82
2022-08-17T13:53:24.883Z,6.63
2022-08-17T13:55:56.043Z,7.47
2022-08-17T13:58:29.753Z,5.97
2022-08-17T14:00:56.923Z,10.48
2022-08-17T14:03:24.007Z,8.68
2022-08-17T14:05:54.160Z,7.07
2022-08-17T14:08:21.138Z,10.40
2022-08-17T14:10:51.533Z,7.57
2022-08-17T14:13:22.174Z,2.20
2022-08-17T14:15:54.778Z,3.00
2022-08-17T14:18:55.272Z,1.95
2022-08-17T14:21:11.800Z,4.97
2022-08-17T14:23:39.257Z,3.15
2022-08-17T14:26:06.388Z,2.25
2022-08-17T14:28:33.364Z,4.07
2022-08-17T14:31:03.459Z,1.30
2022-08-17T14:33:30.593Z,3.00
2022-08-17T14:35:58.088Z,2.50
2022-08-17T14:38:25.065Z,1.85
2022-08-17T14:40:52.149Z,7.97
2022-08-17T14:43:20.871Z,2.00
2022-08-17T14:45:47.891Z,2.38
2022-08-17T14:48:15.076Z,2.47
2022-08-17T14:50:42.554Z,1.85
2022-08-17T14:53:10.613Z,0.82
2022-08-17T14:55:39.908Z,0.90
2022-08-17T14:58:07.579Z,1.75
2022-08-17T15:00:34.882Z,3.15
2022-08-17T15:03:02.219Z,0.38
2022-08-17T15:05:32.434Z,4.53
2022-08-17T15:08:02.826Z,1.90
2022-08-17T15:10:30.266Z,2.88
2022-08-17T15:12:57.432Z,4.18
2022-08-17T15:15:24.589Z,3.63
2022-08-17T15:17:51.734Z,5.32
2022-08-17T15:20:21.126Z,4.88
2022-08-17T15:22:49.930Z,5.25
2022-08-17T15:25:17.414Z,4.97
2022-08-17T15:27:44.602Z,3.40
2022-08-17T15:30:12.207Z,4.10
2022-08-17T15:32:40.592Z,6.75
2022-08-17T15:35:08.837Z,2.83
2022-08-17T15:37:36.301Z,3.78
2022-08-17T15:40:04.093Z,5.63
2022-08-17T15:42:31.212Z,4.47
2022-08-17T15:45:00.126Z,3.92
2022-08-17T15:47:27.187Z,5.72
2022-08-17T15:49:59.474Z,3.65
2022-08-17T15:52:27.960Z,3.15
2022-08-17T15:54:57.147Z,7.40
2022-08-17T15:57:25.647Z,1.73
2022-08-17T15:59:53.998Z,1.55
2022-08-17T16:03:14.516Z,2.65
2022-08-17T16:05:17.464Z,3.92
2022-08-17T16:07:47.048Z,2.20
2022-08-17T16:10:18.873Z,1.85
2022-08-17T16:12:47.235Z,2.75
2022-08-17T16:15:14.516Z,1.65
2022-08-17T16:17:41.535Z,0.70
2022-08-17T16:20:20.512Z,1.33
2022-08-17T16:22:48.706Z,1.02
2022-08-17T16:25:18.820Z,1.50
2022-08-17T16:27:46.742Z,1.40
2022-08-17T16:30:17.539Z,3.38
2022-08-17T16:32:45.318Z,0.63
2022-08-17T16:35:16.128Z,2.05
2022-08-17T16:37:45.675Z,5.45
2022-08-17T16:40:14.435Z,1.40
2022-08-17T16:42:42.795Z,2.78
2022-08-17T16:45:13.460Z,2.72
2022-08-17T16:47:41.847Z,0.70
2022-08-17T16:50:10.268Z,1.67
2022-08-17T16:52:37.748Z,0.93
2022-08-17T16:55:06.417Z,0.60
2022-08-17T16:57:33.837Z,1.50
2022-08-17T17:00:00.823Z,0.45
2022-08-17T17:02:38.749Z,1.30
2022-08-17T17:05:11.753Z,4.35
2022-08-17T17:07:38.821Z,1.35
2022-08-17T17:10:09.964Z,0.90
2022-08-17T17:13:01.965Z,3.83
2022-08-17T17:15:28.718Z,2.10
2022-08-17T17:17:58.575Z,1.83
2022-08-17T17:20:31.780Z,6.75
2022-08-17T17:23:11.332Z,3.25
2022-08-17T17:25:48.927Z,2.17
2022-08-17T17:28:24.857Z,3.92
2022-08-17T17:30:51.848Z,3.05
2022-08-17T17:33:24.913Z,3.80
2022-08-17T17:35:58.608Z,2.75
2022-08-17T17:38:31.475Z,6.78
2022-08-17T17:41:06.791Z,3.85
2022-08-17T17:43:41.153Z,4.68
2022-08-17T17:46:28.536Z,7.82
2022-08-17T17:48:57.129Z,2.33
2022-08-17T17:52:02.881Z,2.53
2022-08-17T17:54:50.380Z,8.93
2022-08-17T17:57:29.042Z,4.72
2022-08-17T18:00:05.146Z,1.75
2022-08-17T18:03:03.911Z,4.07
2022-08-17T18:05:37.033Z,2.83
2022-08-17T18:08:32.213Z,4.38
2022-08-17T18:14:00.343Z,3.33
2022-08-17T18:16:29.588Z,2.63
2022-08-17T18:18:59.194Z,4.30
2022-08-17T18:21:34.647Z,1.60
2022-08-17T18:24:03.167Z,1.25
2022-08-17T18:26:33.419Z,5.70
2022-08-17T18:29:01.269Z,5.93
2022-08-17T18:31:29.485Z,4.25
2022-08-17T18:34:43.857Z,3.58
2022-08-17T18:37:08.821Z,3.90
2022-08-17T18:39:37.225Z,5.88
2022-08-17T18:42:04.800Z,4.10
2022-08-17T18:44:40.533Z,6.15
2022-08-17T18:47:51.823Z,3.95
2022-08-17T18:50:21.156Z,6.22
2022-08-17T18:52:48.998Z,6.97
2022-08-17T18:55:28.965Z,2.30
2022-08-17T18:57:57.025Z,2.63
2022-08-17T19:00:29.676Z,2.47
2022-08-17T19:02:59.836Z,3.50
2022-08-17T19:05:36.784Z,6.03
2022-08-17T19:08:15.906Z,5.05
2022-08-17T19:10:46.524Z,3.17
2022-08-17T19:13:21.867Z,4.65
2022-08-17T19:16:17.626Z,3.50
2022-08-17T19:18:50.361Z,4.28
2022-08-17T19:21:24.244Z,3.42
2022-08-17T19:24:02.548Z,2.67
2022-08-17T19:26:51.040Z,2.72
2022-08-17T19:29:54.462Z,4.57
2022-08-17T19:32:30.460Z,2.97
2022-08-17T19:37:32.434Z,2.97
2022-08-17T19:40:24.531Z,2.42
2022-08-17T19:43:19.052Z,2.63
2022-08-17T19:46:07.952Z,3.63
2022-08-17T19:48:56.489Z,3.28
2022-08-17T19:51:57.261Z,2.85
2022-08-17T19:54:29.187Z,3.00
2022-08-17T19:57:09.857Z,4.53
2022-08-17T19:59:50.240Z,6.07
2022-08-17T20:02:54.203Z,4.70
2022-08-17T20:06:00.904Z,1.90
2022-08-17T20:08:39.372Z,4.25
2022-08-17T20:11:19.807Z,1.90
2022-08-17T20:13:54.660Z,4.10
2022-08-17T20:16:22.031Z,3.97
2022-08-17T20:19:11.764Z,4.63
2022-08-17T20:21:56.580Z,1.92
2022-08-17T20:24:37.857Z,3.42
2022-08-17T20:27:49.886Z,4.88
2022-08-17T20:30:37.655Z,2.80
2022-08-17T20:33:05.867Z,3.42
2022-08-17T20:35:38.905Z,2.38
2022-08-17T20:38:13.724Z,2.20
2022-08-17T20:41:01.090Z,5.57
2022-08-17T20:43:34.254Z,5.78
2022-08-17T20:46:09.544Z,9.02
2022-08-17T20:48:39.853Z,3.45
2022-08-17T20:51:16.345Z,4.47
2022-08-17T20:56:43.429Z,3.65
2022-08-17T20:59:31.767Z,7.32
2022-08-17T21:02:17.723Z,3.88
2022-08-17T21:04:50.379Z,6.03
2022-08-17T21:07:29.714Z,8.55
2022-08-17T21:10:22.312Z,5.78
2022-08-17T21:13:14.096Z,5.85
2022-08-17T21:16:09.542Z,6.68
2022-08-17T21:18:45.719Z,7.03
2022-08-17T21:21:17.795Z,8.65
2022-08-17T21:24:07.614Z,4.43
2022-08-17T21:26:50.727Z,4.85
2022-08-17T21:29:31.806Z,4.57
2022-08-17T21:32:06.938Z,3.17
2022-08-17T21:34:43.131Z,2.47
2022-08-17T21:37:23.340Z,3.88
2022-08-17T21:40:10.306Z,4.28
2022-08-17T21:42:39.410Z,2.83
2022-08-17T21:45:42.978Z,3.22
2022-08-17T21:48:19.588Z,3.33
2022-08-17T21:50:57.793Z,5.53
2022-08-17T21:53:32.727Z,4.38
2022-08-17T21:56:00.158Z,6.07
2022-08-17T21:58:32.145Z,1.88
2022-08-17T22:01:23.709Z,6.85
2022-08-17T22:04:06.604Z,6.38
2022-08-17T22:06:38.657Z,3.25
2022-08-17T22:09:07.255Z,7.43
2022-08-17T22:11:57.797Z,6.15
2022-08-17T22:14:52.090Z,5.32
2022-08-17T22:17:46.758Z,4.80
2022-08-17T22:20:17.248Z,4.43
2022-08-17T22:23:08.903Z,6.25
2022-08-17T22:25:37.722Z,5.10
2022-08-17T22:28:09.072Z,5.20
2022-08-17T22:30:40.843Z,1.75
2022-08-17T22:33:33.332Z,9.52
2022-08-17T22:36:29.502Z,11.15
2022-08-17T22:39:16.836Z,3.83
2022-08-17T22:41:54.323Z,11.77
2022-08-17T22:44:23.314Z,7.90
2022-08-17T22:47:16.983Z,7.25
2022-08-17T22:49:53.394Z,6.70
2022-08-17T22:52:33.072Z,8.43
2022-08-17T22:55:40.161Z,3.88
2022-08-17T22:58:35.832Z,3.08
2022-08-17T23:01:29.106Z,5.35
2022-08-17T23:04:07.276Z,7.28
2022-08-17T23:06:35.415Z,3.42
2022-08-17T23:09:04.125Z,8.32
2022-08-17T23:11:49.746Z,7.93
2022-08-17T23:14:20.677Z,9.32
2022-08-17T23:16:50.079Z,3.33
2022-08-17T23:19:20.889Z,6.43
2022-08-17T23:21:51.012Z,3.85
2022-08-17T23:24:24.316Z,8.73
2022-08-17T23:26:51.618Z,7.68
2022-08-17T23:29:22.787Z,5.78
2022-08-17T23:31:50.462Z,9.80
2022-08-17T23:34:18.648Z,4.75
2022-08-17T23:36:52.492Z,9.88
2022-08-17T23:39:27.233Z,6.25
2022-08-17T23:41:59.386Z,5.35
2022-08-17T23:44:26.919Z,8.60
2022-08-17T23:46:54.441Z,4.07
2022-08-17T23:49:21.440Z,10.40
2022-08-17T23:51:49.001Z,5.25
2022-08-17T23:54:29.904Z,5.35
2022-08-17T23:56:56.953Z,3.97
2022-08-17T23:59:24.024Z,4.53
